Time;durP1;ratioP1;P1;durP2;ratioP2;P2;SDS_P1;SDS_P2;PMS_P1;PMS_P2;Temp;Humidity;BMP_temperature;BMP_pressure;BME280_temperature;BME280_humidity;BME280_pressure;Samples;Min_cycle;Max_cycle;Signal;HPM_P1;HPM_P2
2022/11/07 00:01:48;;;;;;;19.58;13.90;;;;;;;9.44;100.00;100641.16;5049884;28;20154;-64
2022/11/07 00:04:14;;;;;;;19.92;13.95;;;;;;;9.44;100.00;100642.00;5053392;28;20036;-63
2022/11/07 00:06:39;;;;;;;19.60;13.50;;;;;;;9.44;100.00;100653.06;5053860;28;20032;-63
2022/11/07 00:09:05;;;;;;;19.92;13.90;;;;;;;9.48;100.00;100651.31;5053603;28;20388;-63
2022/11/07 00:11:30;;;;;;;20.25;13.15;;;;;;;9.52;100.00;100657.03;5053496;28;20414;-63
2022/11/07 00:13:55;;;;;;;18.02;13.10;;;;;;;9.50;100.00;100656.50;5053332;28;20350;-64
2022/11/07 00:16:21;;;;;;;21.30;13.77;;;;;;;9.50;100.00;100653.75;5053497;28;20357;-64
2022/11/07 00:18:46;;;;;;;20.25;12.70;;;;;;;9.58;100.00;100644.78;5053379;28;20133;-64
2022/11/07 00:21:12;;;;;;;19.83;13.00;;;;;;;9.59;100.00;100648.38;5053202;28;20074;-64
2022/11/07 00:23:41;;;;;;;20.52;12.95;;;;;;;9.61;100.00;100654.41;5053501;28;20029;-63
2022/11/07 00:26:10;;;;;;;18.95;12.43;;;;;;;9.57;100.00;100631.28;5053085;28;20033;-64
2022/11/07 00:28:38;;;;;;;20.38;13.45;;;;;;;9.57;100.00;100645.09;5053267;28;20029;-64
2022/11/07 00:31:04;;;;;;;19.58;12.88;;;;;;;9.59;100.00;100656.66;5035140;28;20071;-64
2022/11/07 00:33:30;;;;;;;20.30;12.90;;;;;;;9.57;100.00;100670.78;5053124;28;20052;-65
2022/11/07 00:35:55;;;;;;;22.60;13.40;;;;;;;9.52;100.00;100657.88;5053201;28;20456;-65
2022/11/07 00:38:21;;;;;;;19.63;12.85;;;;;;;9.52;100.00;100660.63;5053115;28;20162;-63
2022/11/07 00:40:56;;;;;;;22.25;13.55;;;;;;;9.51;100.00;100659.00;5052727;28;20028;-63
2022/11/07 00:43:22;;;;;;;21.27;13.00;;;;;;;9.42;100.00;100660.81;5053085;28;20055;-63
2022/11/07 00:45:48;;;;;;;20.35;13.07;;;;;;;9.39;100.00;100666.13;5034639;28;20446;-64
2022/11/07 00:48:13;;;;;;;22.25;13.40;;;;;;;9.29;100.00;100658.81;5052787;28;20029;-64
2022/11/07 00:50:39;;;;;;;22.13;12.68;;;;;;;9.30;100.00;100657.69;5052874;28;20032;-64
2022/11/07 00:53:05;;;;;;;18.80;13.05;;;;;;;9.20;100.00;100669.75;5052819;28;20020;-63
2022/11/07 00:55:34;;;;;;;20.58;12.57;;;;;;;9.14;100.00;100665.41;5049398;28;20052;-63
2022/11/07 00:57:59;;;;;;;20.85;13.82;;;;;;;9.07;100.00;100667.75;5053090;28;20020;-62
2022/11/07 01:00:25;;;;;;;20.35;12.80;;;;;;;9.07;100.00;100665.78;5052743;28;20428;-64
2022/11/07 01:05:35;;;;;;;20.50;12.82;;;;;;;9.09;100.00;100666.31;5052470;28;20067;-63
2022/11/07 01:08:00;;;;;;;21.25;12.68;;;;;;;9.00;100.00;100668.13;5052576;28;20017;-62
2022/11/07 01:10:25;;;;;;;20.80;13.80;;;;;;;8.99;100.00;100660.94;5052523;28;20047;-63
2022/11/07 01:12:51;;;;;;;21.65;13.05;;;;;;;8.95;100.00;100670.97;5052797;28;20033;-64
2022/11/07 01:15:16;;;;;;;21.15;13.73;;;;;;;8.89;100.00;100673.78;5052269;28;20086;-63
2022/11/07 01:17:41;;;;;;;21.00;13.73;;;;;;;8.90;100.00;100677.38;5052185;28;20059;-62
2022/11/07 01:20:07;;;;;;;23.13;13.80;;;;;;;8.94;100.00;100672.09;5052133;28;20078;-63
2022/11/07 01:22:33;;;;;;;21.38;13.10;;;;;;;8.98;100.00;100695.19;5052468;28;20116;-63
2022/11/07 01:24:58;;;;;;;24.05;13.15;;;;;;;8.97;100.00;100682.53;5052482;28;20111;-62
2022/11/07 01:27:23;;;;;;;22.25;14.05;;;;;;;8.93;100.00;100687.81;5052190;28;20107;-62
2022/11/07 01:29:49;;;;;;;20.88;13.40;;;;;;;8.93;100.00;100701.59;5052296;28;20025;-63
2022/11/07 01:32:14;;;;;;;23.33;14.05;;;;;;;8.95;100.00;100702.13;5052285;28;20119;-64
2022/11/07 01:34:39;;;;;;;20.45;13.30;;;;;;;8.93;100.00;100698.84;5052118;28;20031;-64
2022/11/07 01:37:04;;;;;;;20.95;12.80;;;;;;;8.96;100.00;100691.94;5051927;28;20033;-63
2022/11/07 01:39:30;;;;;;;21.35;13.57;;;;;;;8.98;100.00;100698.78;5051943;28;20032;-63
2022/11/07 01:41:55;;;;;;;21.40;13.60;;;;;;;8.96;100.00;100701.00;5051827;28;20033;-63
2022/11/07 01:44:20;;;;;;;22.70;12.98;;;;;;;8.96;100.00;100705.72;5052007;28;20156;-64
2022/11/07 01:46:47;;;;;;;19.10;13.23;;;;;;;8.86;100.00;100690.13;5051999;28;20029;-64
2022/11/07 01:49:18;;;;;;;19.67;12.73;;;;;;;8.90;100.00;100688.41;5051926;28;20275;-62
2022/11/07 01:51:51;;;;;;;19.48;13.75;;;;;;;8.99;100.00;100702.34;5052057;28;20047;-63
2022/11/07 01:54:20;;;;;;;19.52;13.48;;;;;;;9.01;100.00;100697.34;5052215;28;20036;-63
2022/11/07 01:56:47;;;;;;;22.13;13.18;;;;;;;8.99;100.00;100697.66;5051640;28;20025;-63
2022/11/07 01:59:18;;;;;;;22.15;13.32;;;;;;;8.93;100.00;100679.53;5048071;28;20480;-64
2022/11/07 02:01:43;;;;;;;20.65;13.73;;;;;;;9.01;100.00;100694.59;5051338;28;20488;-63
2022/11/07 02:04:10;;;;;;;21.55;13.15;;;;;;;9.09;100.00;100698.63;5051406;28;20053;-64
2022/11/07 02:06:51;;;;;;;19.42;13.50;;;;;;;9.08;100.00;100695.03;5051276;28;20442;-63
2022/11/07 02:09:16;;;;;;;26.92;14.27;;;;;;;9.12;100.00;100698.84;5051358;28;20025;-64
2022/11/07 02:11:41;;;;;;;20.42;13.60;;;;;;;9.21;100.00;100707.25;5051439;28;20032;-64
2022/11/07 02:14:07;;;;;;;21.10;13.70;;;;;;;9.26;100.00;100701.66;5051443;28;20102;-64
2022/11/07 02:16:35;;;;;;;20.48;13.43;;;;;;;9.26;100.00;100692.56;5051479;28;20025;-64
2022/11/07 02:19:07;;;;;;;19.88;13.10;;;;;;;9.31;100.00;100698.00;5051298;28;20083;-63
2022/11/07 02:21:51;;;;;;;21.25;13.45;;;;;;;9.42;100.00;100705.00;5051227;28;20021;-64
2022/11/07 02:24:26;;;;;;;20.55;12.90;;;;;;;9.50;100.00;100700.69;5051045;28;20021;-63
2022/11/07 02:26:53;;;;;;;22.20;12.65;;;;;;;9.48;100.00;100703.78;5050477;28;20037;-64
2022/11/07 02:29:20;;;;;;;20.92;13.00;;;;;;;9.50;100.00;100706.22;5051631;28;20404;-63
2022/11/07 02:31:46;;;;;;;21.98;13.85;;;;;;;9.49;100.00;100702.66;5051198;28;20452;-64
2022/11/07 02:34:11;;;;;;;22.08;14.00;;;;;;;9.46;100.00;100705.19;5051342;28;20020;-64
2022/11/07 02:36:36;;;;;;;21.88;14.40;;;;;;;9.47;100.00;100709.59;5051164;28;20025;-63
2022/11/07 02:39:02;;;;;;;21.05;13.18;;;;;;;9.47;100.00;100715.13;5050952;28;20534;-63
2022/11/07 02:41:32;;;;;;;21.92;13.77;;;;;;;9.43;100.00;100722.38;5050387;28;20056;-64
2022/11/07 02:44:03;;;;;;;22.20;13.77;;;;;;;9.46;100.00;100717.06;5051104;28;20550;-63
2022/11/07 02:46:30;;;;;;;24.88;14.00;;;;;;;9.49;100.00;100710.13;5051101;28;20120;-63
2022/11/07 02:48:58;;;;;;;21.42;13.82;;;;;;;9.45;100.00;100709.88;5050837;28;20035;-64
2022/11/07 02:51:23;;;;;;;21.42;13.02;;;;;;;9.40;100.00;100692.63;5050719;28;20086;-64
2022/11/07 02:53:49;;;;;;;18.90;12.73;;;;;;;9.37;100.00;100702.28;5050926;28;20025;-65
2022/11/07 02:56:15;;;;;;;23.55;12.95;;;;;;;9.31;100.00;100698.00;5050834;28;20044;-65
2022/11/07 02:58:40;;;;;;;21.13;12.60;;;;;;;9.30;100.00;100704.63;5050554;28;20037;-64
2022/11/07 03:01:06;;;;;;;21.52;13.25;;;;;;;9.38;100.00;100703.13;5046896;28;20037;-64
2022/11/07 03:03:37;;;;;;;20.38;13.00;;;;;;;9.30;100.00;100691.66;5050734;28;20025;-66
2022/11/07 03:06:04;;;;;;;22.30;14.00;;;;;;;9.32;100.00;100686.63;5050902;28;20037;-65
2022/11/07 03:08:29;;;;;;;23.48;13.65;;;;;;;9.29;100.00;100687.25;5050927;28;20109;-63
2022/11/07 03:10:55;;;;;;;22.05;14.02;;;;;;;9.27;100.00;100691.41;5050844;28;20099;-63
2022/11/07 03:13:20;;;;;;;22.10;13.82;;;;;;;9.28;100.00;100693.06;5050839;28;20523;-64
2022/11/07 03:15:46;;;;;;;22.92;13.23;;;;;;;9.25;100.00;100702.78;5032519;28;20127;-65
2022/11/07 03:18:11;;;;;;;20.02;12.93;;;;;;;9.24;100.00;100703.09;5050387;28;20190;-64
2022/11/07 03:20:36;;;;;;;23.83;14.05;;;;;;;9.27;100.00;100696.94;5050306;28;20025;-63
2022/11/07 03:23:01;;;;;;;23.10;12.98;;;;;;;9.20;100.00;100700.91;5050417;28;20419;-64
2022/11/07 03:25:27;;;;;;;21.65;13.70;;;;;;;9.20;100.00;100698.16;5050278;28;20033;-64
2022/11/07 03:27:52;;;;;;;22.10;13.57;;;;;;;9.19;100.00;100692.94;5050148;28;20051;-65
2022/11/07 03:30:18;;;;;;;23.00;13.70;;;;;;;9.23;100.00;100701.44;5032177;28;20540;-64
2022/11/07 03:32:43;;;;;;;21.13;13.10;;;;;;;9.19;100.00;100707.56;5050154;28;20039;-64
2022/11/07 03:35:09;;;;;;;24.60;13.43;;;;;;;9.19;100.00;100709.50;5050305;28;20491;-64
2022/11/07 03:37:35;;;;;;;21.33;13.15;;;;;;;9.20;100.00;100705.63;5051140;28;20439;-64
2022/11/07 03:40:00;;;;;;;22.65;13.00;;;;;;;9.23;100.00;100705.00;5054226;28;20107;-63
2022/11/07 03:42:25;;;;;;;21.95;13.05;;;;;;;9.26;100.00;100709.13;5054009;28;20163;-64
2022/11/07 03:44:51;;;;;;;20.92;12.63;;;;;;;9.27;100.00;100708.81;5054151;28;20044;-66
2022/11/07 03:47:16;;;;;;;23.40;13.10;;;;;;;9.31;100.00;100709.03;5054277;28;20461;-67
2022/11/07 03:49:41;;;;;;;22.75;13.07;;;;;;;9.34;100.00;100720.28;5054178;28;20090;-63
2022/11/07 03:52:07;;;;;;;21.55;13.27;;;;;;;9.32;100.00;100705.16;5054040;28;20368;-64
2022/11/07 03:54:32;;;;;;;21.42;13.15;;;;;;;9.39;100.00;100713.88;5053910;28;20041;-65
2022/11/07 03:56:57;;;;;;;24.08;13.20;;;;;;;9.38;100.00;100709.47;5053875;28;20337;-64
2022/11/07 03:59:23;;;;;;;25.10;13.10;;;;;;;9.32;100.00;100700.44;5035564;28;20041;-65
2022/11/07 04:01:48;;;;;;;24.05;12.95;;;;;;;9.45;100.00;100720.13;5049995;28;20029;-65
2022/11/07 04:04:14;;;;;;;23.13;13.25;;;;;;;9.47;100.00;100717.88;5053909;28;20024;-65
2022/11/07 04:06:39;;;;;;;22.20;13.10;;;;;;;9.47;100.00;100713.19;5053850;28;20025;-64
2022/11/07 04:09:05;;;;;;;23.23;13.05;;;;;;;9.49;100.00;100710.94;5053972;28;20388;-65
2022/11/07 04:19:41;;;;;;;22.45;13.27;;;;;;;9.64;100.00;100701.56;5053519;28;20056;-63
2022/11/07 04:22:07;;;;;;;21.35;13.07;;;;;;;9.60;100.00;100689.47;5053293;28;20044;-63
2022/11/07 04:24:32;;;;;;;22.50;13.20;;;;;;;9.66;100.00;100706.78;5053270;28;20043;-64
2022/11/07 04:29:42;;;;;;;25.08;13.07;;;;;;;9.64;100.00;100709.03;5053374;28;20232;-65
2022/11/07 04:32:07;;;;;;;26.83;13.43;;;;;;;9.63;100.00;100707.41;5053256;28;20133;-64
2022/11/07 04:34:32;;;;;;;22.15;13.48;;;;;;;9.58;100.00;100718.53;5053174;28;20506;-63
2022/11/07 04:36:58;;;;;;;22.25;13.50;;;;;;;9.58;100.00;100713.00;5053139;28;20032;-63
2022/11/07 04:39:23;;;;;;;21.63;12.85;;;;;;;9.54;100.00;100714.75;5053002;28;20495;-63
2022/11/07 04:41:48;;;;;;;26.13;13.82;;;;;;;9.54;100.00;100715.56;5053304;28;20116;-63
2022/11/07 04:44:13;;;;;;;25.05;13.80;;;;;;;9.48;100.00;100717.59;5053174;28;20468;-62
2022/11/07 04:46:39;;;;;;;23.30;13.95;;;;;;;9.46;100.00;100724.53;5053049;28;20111;-63
2022/11/07 04:49:04;;;;;;;24.20;13.20;;;;;;;9.42;100.00;100721.56;5052206;28;20427;-63
2022/11/07 04:51:29;;;;;;;22.60;13.40;;;;;;;9.43;100.00;100723.19;5053092;28;20090;-64
2022/11/07 04:53:54;;;;;;;25.45;13.32;;;;;;;9.47;100.00;100726.97;5052809;28;20333;-64
2022/11/07 04:56:20;;;;;;;21.15;12.98;;;;;;;9.44;100.00;100718.47;5052386;28;20036;-64
2022/11/07 04:58:45;;;;;;;20.58;13.13;;;;;;;9.45;100.00;100726.47;5052696;28;20086;-63
2022/11/07 05:01:10;;;;;;;24.10;13.30;;;;;;;9.51;100.00;100725.28;5048969;28;20365;-64
2022/11/07 05:03:36;;;;;;;23.30;13.15;;;;;;;9.44;100.00;100718.47;5052589;28;20033;-64
2022/11/07 05:06:03;;;;;;;27.15;14.15;;;;;;;9.46;100.00;100730.88;5052646;28;20086;-64
2022/11/07 05:08:29;;;;;;;24.98;13.02;;;;;;;9.51;100.00;100728.03;5052701;28;20028;-63
2022/11/07 05:10:54;;;;;;;21.90;12.93;;;;;;;9.54;100.00;100737.66;5052498;28;20025;-64
2022/11/07 05:13:19;;;;;;;25.15;14.25;;;;;;;9.56;100.00;100734.56;5052616;28;20025;-64
2022/11/07 05:15:45;;;;;;;22.40;13.00;;;;;;;9.56;100.00;100738.19;5052710;28;20021;-63
2022/11/07 05:18:10;;;;;;;20.13;12.50;;;;;;;9.59;100.00;100733.97;5052614;28;20094;-64
2022/11/07 05:20:37;;;;;;;21.92;12.98;;;;;;;9.63;100.00;100738.59;5052783;28;20033;-62
2022/11/07 05:23:17;;;;;;;24.35;13.02;;;;;;;9.69;100.00;100739.34;5052328;28;20388;-63
2022/11/07 05:25:48;;;;;;;23.83;12.80;;;;;;;9.67;100.00;100728.59;5052478;28;20153;-63
2022/11/07 05:28:16;;;;;;;24.63;13.18;;;;;;;9.76;100.00;100750.00;5051809;28;20039;-64
2022/11/07 05:30:43;;;;;;;23.23;13.70;;;;;;;9.79;100.00;100741.09;5052075;28;20040;-64
2022/11/07 05:33:09;;;;;;;23.10;13.20;;;;;;;9.79;100.00;100743.84;5051849;28;20024;-64
2022/11/07 05:35:35;;;;;;;22.70;13.50;;;;;;;9.76;100.00;100737.00;5051591;28;20029;-64
2022/11/07 05:38:00;;;;;;;23.90;13.00;;;;;;;9.77;100.00;100740.59;5051242;28;20090;-63
2022/11/07 05:40:26;;;;;;;22.25;13.07;;;;;;;9.75;100.00;100743.63;5051328;28;20211;-64
2022/11/07 05:42:51;;;;;;;23.15;13.55;;;;;;;9.75;100.00;100749.16;5051278;28;20063;-64
2022/11/07 05:45:16;;;;;;;23.88;13.40;;;;;;;9.85;100.00;100750.94;5051528;28;20352;-64
2022/11/07 05:47:41;;;;;;;21.98;13.02;;;;;;;9.79;100.00;100752.97;5033650;28;20040;-64
2022/11/07 05:50:07;;;;;;;23.48;14.00;;;;;;;9.83;100.00;100742.94;5052120;28;20098;-64
2022/11/07 05:52:32;;;;;;;27.13;14.02;;;;;;;9.82;100.00;100746.00;5051795;28;20830;-64
2022/11/07 05:54:57;;;;;;;24.00;13.35;;;;;;;9.78;100.00;100747.72;5051831;28;20029;-64
2022/11/07 05:57:23;;;;;;;23.08;13.77;;;;;;;9.75;100.00;100742.84;5051627;28;20468;-63
2022/11/07 05:59:48;;;;;;;21.60;14.00;;;;;;;9.79;100.00;100744.69;5051409;28;20037;-63
2022/11/07 06:02:13;;;;;;;23.63;13.57;;;;;;;9.76;100.00;100741.72;5048228;28;20033;-63
2022/11/07 06:04:38;;;;;;;22.70;12.80;;;;;;;9.81;100.00;100741.59;5052007;28;20025;-65
2022/11/07 06:07:04;;;;;;;21.92;12.73;;;;;;;9.81;100.00;100742.44;5051983;28;20533;-65
2022/11/07 06:09:29;;;;;;;23.50;13.05;;;;;;;9.80;100.00;100737.19;5051717;28;20041;-64
2022/11/07 06:11:54;;;;;;;23.85;13.30;;;;;;;9.74;100.00;100739.22;5033217;28;20033;-63
2022/11/07 06:14:20;;;;;;;25.85;13.68;;;;;;;9.72;100.00;100744.25;5051253;28;20108;-65
2022/11/07 06:16:45;;;;;;;25.27;13.02;;;;;;;9.78;100.00;100740.28;5051287;28;20097;-65
2022/11/07 06:19:10;;;;;;;25.15;14.30;;;;;;;9.72;100.00;100741.50;5050832;28;20564;-65
2022/11/07 06:21:36;;;;;;;24.98;12.80;;;;;;;9.79;100.00;100741.09;5051043;28;20071;-65
2022/11/07 06:24:01;;;;;;;24.50;12.90;;;;;;;9.80;100.00;100748.25;5051171;28;20036;-67
2022/11/07 06:26:26;;;;;;;23.52;12.85;;;;;;;9.78;100.00;100736.69;5050917;28;20037;-64
2022/11/07 06:28:52;;;;;;;19.83;12.50;;;;;;;9.83;100.00;100742.13;5050816;28;20516;-63
2022/11/07 06:31:18;;;;;;;23.50;12.52;;;;;;;9.90;100.00;100741.75;5050808;28;20158;-63
2022/11/07 06:33:43;;;;;;;24.77;12.82;;;;;;;9.87;100.00;100748.66;5051298;28;20028;-63
2022/11/07 06:36:11;;;;;;;25.02;13.45;;;;;;;9.90;100.00;100747.25;5050537;28;20028;-63
2022/11/07 06:38:37;;;;;;;23.15;13.60;;;;;;;9.94;100.00;100749.13;5031822;28;20119;-64
2022/11/07 06:41:12;;;;;;;21.70;12.98;;;;;;;9.93;100.00;100750.25;5048475;28;20071;-63
2022/11/07 06:43:38;;;;;;;21.90;12.95;;;;;;;9.98;100.00;100757.63;5048594;28;20515;-64
2022/11/07 06:46:05;;;;;;;25.02;12.73;;;;;;;9.95;100.00;100749.91;5048261;28;20077;-65
2022/11/07 06:48:31;;;;;;;20.70;12.60;;;;;;;10.04;100.00;100759.16;5047747;28;20063;-63
2022/11/07 06:51:02;;;;;;;23.45;13.40;;;;;;;10.03;100.00;100754.75;5047773;28;20037;-64
2022/11/07 06:53:27;;;;;;;22.38;13.00;;;;;;;10.08;100.00;100760.19;5048086;28;20025;-64
2022/11/07 06:55:53;;;;;;;23.42;12.73;;;;;;;10.09;100.00;100767.38;5050582;28;20106;-63
2022/11/07 06:58:19;;;;;;;26.38;13.80;;;;;;;10.11;100.00;100769.81;5047648;28;20025;-63
2022/11/07 07:00:44;;;;;;;27.05;13.77;;;;;;;10.21;100.00;100768.78;5050536;28;20072;-63
2022/11/07 07:03:11;;;;;;;24.95;13.50;;;;;;;10.19;100.00;100771.88;5050398;28;20190;-63
2022/11/07 07:05:36;;;;;;;24.35;13.43;;;;;;;10.23;100.00;100775.69;5050289;28;20116;-63
2022/11/07 07:08:03;;;;;;;23.67;12.43;;;;;;;10.33;100.00;100782.13;5043981;28;20109;-63
2022/11/07 07:10:29;;;;;;;21.83;12.52;;;;;;;10.28;100.00;100775.56;5030521;28;20041;-63
2022/11/07 07:12:55;;;;;;;25.52;12.55;;;;;;;10.35;100.00;100780.69;5030085;28;20721;-63
2022/11/07 07:15:21;;;;;;;20.52;12.10;;;;;;;10.35;100.00;100777.09;5030441;28;20531;-63
2022/11/07 07:17:46;;;;;;;21.88;12.60;;;;;;;10.44;100.00;100791.88;5030527;28;20061;-66
2022/11/07 07:20:11;;;;;;;22.55;12.68;;;;;;;10.43;100.00;100788.31;5030278;28;20057;-67
2022/11/07 07:22:37;;;;;;;22.23;12.25;;;;;;;10.45;100.00;100769.47;5030392;28;20334;-66
2022/11/07 07:25:02;;;;;;;25.92;12.18;;;;;;;10.42;100.00;100780.31;5030380;28;20330;-67
2022/11/07 07:27:27;;;;;;;21.88;12.27;;;;;;;10.47;100.00;100791.28;5029712;28;20021;-66
2022/11/07 07:29:53;;;;;;;24.02;12.23;;;;;;;10.53;100.00;100797.53;5029897;28;20334;-66
2022/11/07 07:32:19;;;;;;;22.48;12.07;;;;;;;10.58;100.00;100800.22;5030025;28;20156;-66
2022/11/07 07:34:44;;;;;;;18.15;11.32;;;;;;;10.61;100.00;100796.81;5011080;28;20040;-66
2022/11/07 07:37:10;;;;;;;22.02;11.52;;;;;;;10.60;100.00;100793.25;5029656;28;20678;-66
2022/11/07 07:39:35;;;;;;;19.25;11.75;;;;;;;10.62;100.00;100803.97;5011531;28;20066;-66
2022/11/07 07:42:00;;;;;;;24.48;12.25;;;;;;;10.66;100.00;100805.03;5029081;28;20022;-67
2022/11/07 07:44:26;;;;;;;21.23;11.82;;;;;;;10.70;100.00;100797.72;5029689;28;20025;-67
2022/11/07 07:46:51;;;;;;;20.40;11.32;;;;;;;10.88;100.00;100797.91;5029736;28;20116;-67
2022/11/07 07:49:16;;;;;;;20.58;11.30;;;;;;;10.75;100.00;100792.09;5012660;28;20477;-67
2022/11/07 07:51:42;;;;;;;21.95;12.15;;;;;;;10.84;100.00;100806.00;5030617;28;20041;-66
2022/11/07 07:54:10;;;;;;;23.58;12.30;;;;;;;10.84;100.00;100802.44;5030633;28;20029;-66
2022/11/07 07:56:36;;;;;;;21.33;11.75;;;;;;;10.89;100.00;100805.94;5030931;28;20093;-64
2022/11/07 07:59:02;;;;;;;22.35;12.10;;;;;;;10.95;100.00;100814.94;5031459;28;20108;-66
2022/11/07 08:01:27;;;;;;;22.60;11.90;;;;;;;10.98;100.00;100814.31;5030426;28;20040;-62
2022/11/07 08:03:52;;;;;;;21.92;11.27;;;;;;;11.02;100.00;100809.81;5030657;28;20030;-62
2022/11/07 08:06:18;;;;;;;20.60;11.63;;;;;;;11.15;100.00;100815.59;5030991;28;20056;-62
2022/11/07 08:08:43;;;;;;;21.17;11.68;;;;;;;11.16;100.00;100811.72;5044219;28;20027;-61
2022/11/07 08:11:09;;;;;;;22.38;11.77;;;;;;;11.19;100.00;100816.63;5049965;28;20476;-61
2022/11/07 08:13:35;;;;;;;20.58;11.82;;;;;;;11.23;100.00;100817.66;5031740;28;20075;-62
2022/11/07 08:16:02;;;;;;;23.80;11.80;;;;;;;11.23;100.00;100829.53;5049601;28;20079;-62
2022/11/07 08:18:27;;;;;;;23.92;10.98;;;;;;;11.29;100.00;100821.94;5031116;28;20084;-62
2022/11/07 08:20:54;;;;;;;23.83;11.60;;;;;;;11.35;100.00;100823.47;5049272;28;20064;-62
2022/11/07 08:23:21;;;;;;;20.02;10.88;;;;;;;11.37;100.00;100832.28;5049305;28;20096;-61
2022/11/07 08:25:54;;;;;;;23.58;11.07;;;;;;;11.49;100.00;100828.94;5052311;28;20091;-61
2022/11/07 08:28:21;;;;;;;20.80;10.93;;;;;;;11.42;100.00;100830.53;5035022;28;20078;-62
2022/11/07 08:31:06;;;;;;;20.90;11.10;;;;;;;11.49;100.00;100839.22;5051547;28;20055;-63
2022/11/07 08:33:32;;;;;;;20.23;11.30;;;;;;;11.44;100.00;100842.09;5052761;28;20039;-61
2022/11/07 08:35:59;;;;;;;23.80;11.55;;;;;;;11.53;100.00;100837.47;5034854;28;20025;-62
2022/11/07 08:38:25;;;;;;;19.80;10.90;;;;;;;11.66;100.00;100844.09;5052731;28;20170;-61
2022/11/07 08:40:51;;;;;;;19.17;11.13;;;;;;;11.59;100.00;100844.53;5034774;28;20056;-61
2022/11/07 08:43:17;;;;;;;20.33;11.07;;;;;;;11.66;100.00;100844.09;5052038;28;20032;-63
2022/11/07 08:45:47;;;;;;;22.52;11.20;;;;;;;11.78;100.00;100844.34;5053054;28;20033;-61
2022/11/07 08:48:13;;;;;;;23.13;11.50;;;;;;;11.77;100.00;100858.53;5052296;28;20029;-62
2022/11/07 08:50:39;;;;;;;22.55;11.50;;;;;;;11.82;100.00;100847.31;5052230;28;20128;-61
2022/11/07 08:53:05;;;;;;;21.00;11.23;;;;;;;11.91;100.00;100853.72;5052007;28;20495;-61
2022/11/07 08:55:30;;;;;;;20.45;10.95;;;;;;;11.94;100.00;100855.06;5052313;28;20062;-61
2022/11/07 08:57:57;;;;;;;20.60;11.15;;;;;;;11.91;100.00;100864.00;5052236;28;20040;-63
2022/11/07 09:00:23;;;;;;;22.08;11.45;;;;;;;11.96;100.00;100872.19;5051966;28;20045;-62
2022/11/07 09:02:48;;;;;;;22.13;11.95;;;;;;;11.94;100.00;100864.19;5052215;28;20025;-61
2022/11/07 09:05:13;;;;;;;20.23;11.25;;;;;;;11.99;100.00;100872.44;5052313;28;20112;-61
2022/11/07 09:07:39;;;;;;;22.23;11.07;;;;;;;11.95;100.00;100876.94;5052110;28;20036;-62
2022/11/07 09:10:05;;;;;;;21.20;11.60;;;;;;;11.93;100.00;100884.75;5051923;28;20025;-62
2022/11/07 09:12:30;;;;;;;21.63;11.73;;;;;;;11.93;100.00;100887.50;5051765;28;20055;-62
2022/11/07 09:14:55;;;;;;;21.60;11.68;;;;;;;11.92;100.00;100887.84;5051915;28;20108;-61
2022/11/07 09:17:21;;;;;;;20.23;11.32;;;;;;;11.98;100.00;100881.06;5051785;28;20044;-61
2022/11/07 09:19:46;;;;;;;22.77;11.50;;;;;;;11.91;100.00;100880.66;5051738;28;20053;-62
2022/11/07 09:22:11;;;;;;;23.10;11.30;;;;;;;11.90;100.00;100881.78;5051879;28;20020;-62
2022/11/07 09:24:36;;;;;;;21.55;11.32;;;;;;;11.94;100.00;100894.69;5051589;28;20033;-63
2022/11/07 09:27:02;;;;;;;21.15;11.52;;;;;;;12.06;100.00;100904.44;5052044;28;20033;-62
2022/11/07 09:29:27;;;;;;;19.80;11.48;;;;;;;12.02;100.00;100893.97;5051586;28;20040;-63
2022/11/07 09:31:52;;;;;;;21.08;11.35;;;;;;;12.05;100.00;100891.72;5051656;28;20067;-63
2022/11/07 09:34:18;;;;;;;20.02;10.73;;;;;;;12.07;100.00;100895.00;5051806;28;20031;-62
2022/11/07 09:36:43;;;;;;;22.02;11.13;;;;;;;12.20;100.00;100899.63;5050643;28;20353;-61
2022/11/07 09:39:08;;;;;;;24.10;12.00;;;;;;;12.12;100.00;100894.84;5051347;28;20073;-61
2022/11/07 09:41:54;;;;;;;21.73;11.80;;;;;;;12.20;100.00;100898.81;5050906;28;20174;-61
2022/11/07 09:44:28;;;;;;;20.05;11.05;;;;;;;12.16;100.00;100909.75;5050347;28;20041;-62
2022/11/07 09:47:18;;;;;;;21.55;11.18;;;;;;;12.15;100.00;100899.78;5051018;28;20028;-61
2022/11/07 09:49:50;;;;;;;23.33;12.02;;;;;;;12.17;100.00;100903.06;5051410;28;20119;-62
2022/11/07 09:52:34;;;;;;;21.85;11.98;;;;;;;12.17;100.00;100906.63;5033470;28;20025;-63
2022/11/07 09:55:06;;;;;;;;;;;;;;;12.31;100.00;100906.56;5052468;28;20029;-61
2022/11/07 09:57:33;;;;;;;23.08;12.05;;;;;;;12.20;100.00;100905.19;5051712;28;19965;-61
2022/11/07 10:00:14;;;;;;;21.58;12.60;;;;;;;12.26;100.00;100923.34;5051142;28;20037;-61
2022/11/07 10:03:08;;;;;;;20.65;11.45;;;;;;;12.28;100.00;100909.16;5051582;28;20559;-63
2022/11/07 10:05:52;;;;;;;19.98;11.70;;;;;;;12.27;100.00;100922.22;5048411;28;20476;-60
2022/11/07 10:08:33;;;;;;;21.83;12.15;;;;;;;12.24;100.00;100902.59;5052536;28;20024;-61
2022/11/07 10:11:04;;;;;;;24.50;11.45;;;;;;;12.37;100.00;100917.56;5051252;28;20036;-63
2022/11/07 10:14:15;;;;;;;22.33;11.23;;;;;;;12.47;100.00;100925.59;5058112;28;20059;-60
2022/11/07 10:16:46;;;;;;;23.20;11.50;;;;;;;12.46;100.00;100910.09;4986046;28;20640;-62
2022/11/07 10:19:26;;;;;;;20.98;11.80;;;;;;;12.45;100.00;100914.81;4989043;28;20060;-64
2022/11/07 10:21:59;;;;;;;19.17;11.05;;;;;;;12.51;100.00;100923.81;5029706;28;20044;-62
2022/11/07 10:24:30;;;;;;;22.80;12.38;;;;;;;12.52;100.00;100922.69;5051603;28;20029;-64
2022/11/07 10:26:57;;;;;;;21.80;11.52;;;;;;;12.55;99.86;100922.06;5051500;28;20025;-63
2022/11/07 10:29:27;;;;;;;23.05;11.30;;;;;;;12.60;99.11;100924.69;5050892;28;20021;-63
2022/11/07 10:31:58;;;;;;;24.60;11.43;;;;;;;12.59;98.86;100917.50;5049201;28;20044;-63
2022/11/07 10:34:33;;;;;;;21.10;11.77;;;;;;;12.72;99.38;100929.66;5049304;28;20032;-63
2022/11/07 10:36:58;;;;;;;19.77;11.20;;;;;;;12.72;98.24;100935.19;5050505;28;20182;-63
2022/11/07 10:39:24;;;;;;;21.98;11.68;;;;;;;12.70;98.65;100934.72;5050631;28;20536;-63
2022/11/07 10:42:09;;;;;;;21.27;11.05;;;;;;;12.73;98.31;100927.72;5050466;28;20033;-64
2022/11/07 10:44:37;;;;;;;20.20;11.50;;;;;;;12.74;98.00;100935.72;5050311;28;20036;-62
2022/11/07 10:47:14;;;;;;;21.42;11.10;;;;;;;12.71;97.57;100927.19;5050218;28;20029;-63
2022/11/07 10:49:39;;;;;;;21.25;10.85;;;;;;;12.84;95.94;100942.13;5050367;28;20036;-62
2022/11/07 10:52:15;;;;;;;21.95;10.98;;;;;;;12.72;96.85;100918.53;5050432;28;20052;-63
2022/11/07 10:54:42;;;;;;;20.92;11.20;;;;;;;12.92;95.58;100944.94;5032640;28;20025;-62
2022/11/07 10:57:21;;;;;;;21.85;10.55;;;;;;;12.99;96.25;100941.69;5050283;28;20480;-62
2022/11/07 10:59:57;;;;;;;22.58;11.40;;;;;;;13.02;95.58;100932.72;5050368;28;20037;-61
2022/11/07 11:02:22;;;;;;;22.05;11.23;;;;;;;13.13;94.54;100947.13;5050458;28;20437;-63
2022/11/07 11:04:53;;;;;;;22.58;10.88;;;;;;;13.13;95.25;100943.53;5050574;28;20032;-63
2022/11/07 11:07:19;;;;;;;21.88;11.32;;;;;;;13.24;93.93;100945.72;5032504;28;20048;-62
2022/11/07 11:09:54;;;;;;;19.88;11.02;;;;;;;13.16;94.77;100929.84;5049930;28;20025;-62
2022/11/07 11:12:35;;;;;;;23.23;11.18;;;;;;;13.32;94.55;100943.31;5050163;28;20025;-60
2022/11/07 11:15:21;;;;;;;20.08;10.50;;;;;;;13.32;93.89;100934.97;5050351;28;20025;-61
2022/11/07 11:18:00;;;;;;;21.38;10.85;;;;;;;13.32;94.20;100944.09;5050795;28;20033;-62
2022/11/07 11:20:41;;;;;;;22.10;11.25;;;;;;;13.25;93.56;100929.88;5042117;28;20025;-62
2022/11/07 11:23:45;;;;;;;20.52;11.57;;;;;;;13.33;93.59;100926.28;5044775;28;20573;-61